PET weather

Petrolea Airport
CĂșcuta, Norte de Santander Department, Colombia

Public forecast

Using degrees Celsius for public forecast. Weather courtesy of forecast.io.

Closest aviation weather report (METAR) to Petrolea Airport

Report is more than 6 hours old.

Closest report is La Fria Airport, 24.8 nm (45.9 km) SE. Retrieved 2019/11/20 12:00 UTC (18 days ago):

SVLF 201200Z N191000ZIL

Closest aviation forecast (TAF) to Petrolea Airport

Closest forecast is Camilo Daza International Airport, 34.6 nm (64.0 km) S. Retrieved 2019/12/08 18:30 UTC (2 hours ago):

TAF SKCC 081630Z 0818/0918 02012KT 9999 SCT023 SCT090 TEMPO 0820/0824 DZRA SCT020TCU BECMG 0900/0902 VRB03KT PROB40 TEMPO 0910/0915 3000 BCFG SCT010 BKN070 BECMG 0916/0918 36015KT TX30/0818Z TN23/0911Z